Time;durP1;ratioP1;P1;durP2;ratioP2;P2;SDS_P1;SDS_P2;PMS_P1;PMS_P2;Temp;Humidity;BMP_temperature;BMP_pressure;BME280_temperature;BME280_humidity;BME280_pressure;Samples;Min_cycle;Max_cycle;Signal;HPM_P1;HPM_P2
2023/07/09 00:02:24;;;;;;;9.05;2.88;;;;;;;15.06;100.00;100699.34;6253900;22;20016;-92
2023/07/09 00:04:49;;;;;;;11.95;2.08;;;;;;;15.08;100.00;100696.63;6150881;22;19998;-92
2023/07/09 00:07:30;;;;;;;9.48;2.30;;;;;;;15.03;100.00;100683.16;6150994;23;20013;-90
2023/07/09 00:09:56;;;;;;;8.80;2.13;;;;;;;15.06;100.00;100682.91;6150648;22;20501;-93
2023/07/09 00:12:22;;;;;;;13.02;2.67;;;;;;;14.95;100.00;100681.09;6150703;23;20005;-93
2023/07/09 00:14:47;;;;;;;7.35;2.13;;;;;;;14.93;100.00;100678.59;6254356;22;20050;-93
2023/07/09 00:17:26;;;;;;;9.68;2.08;;;;;;;14.89;100.00;100679.75;6150890;23;20028;-92
2023/07/09 00:19:52;;;;;;;8.73;2.50;;;;;;;14.91;100.00;100679.66;6150681;22;20085;-93
2023/07/09 00:22:19;;;;;;;20.67;4.43;;;;;;;14.91;100.00;100677.06;6254290;22;20017;-92
2023/07/09 00:24:47;;;;;;;13.05;3.45;;;;;;;14.88;100.00;100685.91;6254233;22;20489;-92
2023/07/09 00:27:14;;;;;;;19.63;4.63;;;;;;;14.79;100.00;100691.75;6253753;22;20375;-92
2023/07/09 00:29:40;;;;;;;9.73;2.53;;;;;;;14.77;100.00;100688.44;6150876;22;20059;-93
2023/07/09 00:32:13;;;;;;;12.93;2.63;;;;;;;14.76;100.00;100681.59;6150551;23;20059;-92
2023/07/09 00:34:38;;;;;;;11.07;2.45;;;;;;;14.85;100.00;100685.28;6150742;23;20008;-93
2023/07/09 00:37:12;;;;;;;17.38;2.40;;;;;;;14.93;100.00;100694.19;6150805;23;20092;-92
2023/07/09 00:39:40;;;;;;;12.40;2.47;;;;;;;14.88;100.00;100696.31;6254287;22;20010;-93
2023/07/09 00:42:07;;;;;;;10.27;2.72;;;;;;;14.78;100.00;100697.91;6150876;23;20012;-92
2023/07/09 00:44:34;;;;;;;10.32;2.85;;;;;;;14.82;100.00;100701.09;6150864;23;20462;-93
2023/07/09 00:47:02;;;;;;;14.38;2.85;;;;;;;14.81;100.00;100700.28;6150436;23;19998;-93
2023/07/09 00:49:46;;;;;;;23.40;3.08;;;;;;;14.82;100.00;100695.91;6253682;22;20014;-93
2023/07/09 00:52:35;;;;;;;9.02;2.13;;;;;;;14.80;100.00;100696.00;6150711;23;20080;-93
2023/07/09 00:55:07;;;;;;;11.13;2.60;;;;;;;14.85;100.00;100690.47;6150630;23;20069;-92
2023/07/09 00:57:37;;;;;;;12.93;2.90;;;;;;;14.80;100.00;100696.00;6150485;23;20026;-93
2023/07/09 01:00:09;;;;;;;14.27;2.15;;;;;;;14.75;100.00;100695.50;6253051;22;20036;-93
2023/07/09 01:02:36;;;;;;;10.80;2.03;;;;;;;14.69;100.00;100695.94;6150611;23;20395;-92
2023/07/09 01:05:03;;;;;;;8.82;1.67;;;;;;;14.60;100.00;100701.78;6150721;23;20050;-93
2023/07/09 01:07:29;;;;;;;10.57;1.67;;;;;;;14.57;100.00;100702.00;6150689;23;20005;-93
2023/07/09 01:09:55;;;;;;;13.18;1.98;;;;;;;14.50;100.00;100697.19;6150484;22;20072;-93
2023/07/09 01:12:22;;;;;;;3.13;1.40;;;;;;;14.54;100.00;100703.03;6150658;22;20328;-93
2023/07/09 01:14:53;;;;;;;10.23;1.90;;;;;;;14.57;100.00;100699.41;6150624;23;20012;-93
2023/07/09 01:17:19;;;;;;;13.02;2.58;;;;;;;14.58;100.00;100698.44;6150848;23;20044;-94
2023/07/09 01:19:50;;;;;;;13.82;2.90;;;;;;;14.59;100.00;100694.94;6150628;22;19998;-93
2023/07/09 01:22:18;;;;;;;8.73;2.10;;;;;;;14.53;100.00;100690.94;6150615;23;20025;-93
2023/07/09 01:24:51;;;;;;;7.53;2.15;;;;;;;14.45;100.00;100698.47;6150766;23;20059;-93
2023/07/09 01:27:20;;;;;;;10.77;2.33;;;;;;;14.50;100.00;100701.56;6150507;22;20032;-93
2023/07/09 01:29:48;;;;;;;11.43;3.05;;;;;;;14.53;100.00;100706.53;6150575;22;20467;-93
2023/07/09 01:32:17;;;;;;;7.47;2.63;;;;;;;14.49;100.00;100695.53;6151180;22;20005;-94
2023/07/09 01:34:42;;;;;;;10.77;2.25;;;;;;;14.46;100.00;100695.75;6150523;23;20016;-93
2023/07/09 01:37:08;;;;;;;5.57;1.98;;;;;;;14.44;100.00;100697.63;6253197;22;20009;-93
2023/07/09 01:39:33;;;;;;;12.57;2.00;;;;;;;14.45;100.00;100694.09;6252774;22;20006;-94
2023/07/09 01:41:59;;;;;;;12.90;2.55;;;;;;;14.42;100.00;100686.50;6150584;23;20008;-92
2023/07/09 01:44:24;;;;;;;7.63;2.00;;;;;;;14.41;100.00;100687.47;6150478;23;20010;-93
2023/07/09 01:46:50;;;;;;;8.98;1.80;;;;;;;14.35;100.00;100680.09;6150638;23;20510;-93
2023/07/09 01:49:16;;;;;;;10.65;1.98;;;;;;;14.42;100.00;100683.91;6150371;23;20012;-93
2023/07/09 01:51:42;;;;;;;13.05;2.42;;;;;;;14.41;100.00;100681.41;6150246;22;20446;-91
2023/07/09 01:54:07;;;;;;;15.57;2.33;;;;;;;14.41;100.00;100682.28;6150460;22;20066;-92
2023/07/09 01:56:34;;;;;;;14.25;3.22;;;;;;;14.28;100.00;100697.84;6150625;23;20001;-93
2023/07/09 01:59:00;;;;;;;13.57;2.83;;;;;;;14.33;100.00;100694.94;6150377;23;20037;-92
2023/07/09 02:01:29;;;;;;;10.25;2.30;;;;;;;14.41;100.00;100704.78;6150074;22;20093;-92
2023/07/09 02:03:54;;;;;;;14.93;3.35;;;;;;;14.34;100.00;100701.81;6150520;23;20028;-93
2023/07/09 02:06:20;;;;;;;10.30;2.05;;;;;;;14.33;100.00;100700.13;6150207;23;20006;-94
2023/07/09 02:08:45;;;;;;;16.90;2.83;;;;;;;14.36;100.00;100699.91;6150090;23;20005;-93
2023/07/09 02:11:11;;;;;;;9.88;2.50;;;;;;;14.34;100.00;100701.81;6252770;22;20499;-93
2023/07/09 02:13:36;;;;;;;17.63;3.20;;;;;;;14.31;100.00;100705.44;6252836;22;20084;-93
2023/07/09 02:16:01;;;;;;;11.68;2.35;;;;;;;14.28;100.00;100708.22;6252707;22;20743;-93
2023/07/09 02:18:28;;;;;;;13.68;3.50;;;;;;;14.38;100.00;100703.22;6150051;23;20006;-92
2023/07/09 02:20:53;;;;;;;11.35;2.38;;;;;;;14.33;100.00;100700.13;6150599;22;20005;-92
2023/07/09 02:23:19;;;;;;;13.65;3.88;;;;;;;14.32;100.00;100703.66;6252826;22;20002;-93
2023/07/09 02:25:44;;;;;;;16.83;2.53;;;;;;;14.26;100.00;100691.09;6150450;23;20079;-92
2023/07/09 02:28:10;;;;;;;7.95;2.35;;;;;;;14.33;100.00;100694.94;6150028;23;20054;-92
2023/07/09 02:30:35;;;;;;;10.70;2.80;;;;;;;14.28;100.00;100691.81;6252765;22;20005;-92
2023/07/09 02:33:00;;;;;;;12.38;2.50;;;;;;;14.24;100.00;100692.97;6150216;22;20005;-93
2023/07/09 02:35:26;;;;;;;8.75;1.63;;;;;;;14.17;100.00;100696.91;6150391;22;20008;-92
2023/07/09 02:37:51;;;;;;;9.48;2.25;;;;;;;14.24;100.00;100685.19;6150032;23;20324;-92
2023/07/09 02:40:16;;;;;;;11.10;2.88;;;;;;;14.22;100.00;100682.72;6150132;22;20001;-92
2023/07/09 02:42:42;;;;;;;6.50;1.95;;;;;;;14.24;100.00;100690.38;6150178;23;20006;-93
2023/07/09 02:45:08;;;;;;;11.40;2.00;;;;;;;14.25;100.00;100681.66;6150151;22;20364;-93
2023/07/09 02:47:34;;;;;;;8.48;1.83;;;;;;;14.23;100.00;100683.53;6252510;22;20005;-91
2023/07/09 02:49:59;;;;;;;8.90;2.47;;;;;;;14.24;100.00;100685.19;6252513;22;20009;-93
2023/07/09 02:52:24;;;;;;;6.95;1.98;;;;;;;14.19;100.00;100679.47;6149998;23;20028;-93
2023/07/09 02:54:50;;;;;;;16.83;2.33;;;;;;;14.17;100.00;100684.78;6150026;23;20059;-93
2023/07/09 02:57:16;;;;;;;12.65;3.05;;;;;;;14.26;100.00;100678.13;6150069;23;20005;-92
2023/07/09 02:59:41;;;;;;;9.50;2.40;;;;;;;14.21;100.00;100665.44;6149883;22;20001;-92
2023/07/09 03:02:06;;;;;;;10.38;2.08;;;;;;;14.25;100.00;100661.72;6149602;23;20040;-93
2023/07/09 03:04:32;;;;;;;9.93;2.08;;;;;;;14.11;100.00;100675.63;6150073;23;20092;-94
2023/07/09 03:06:59;;;;;;;9.95;1.90;;;;;;;14.18;100.00;100673.47;6150639;23;20008;-93
2023/07/09 03:09:25;;;;;;;13.70;2.60;;;;;;;14.16;100.00;100672.72;6149985;22;20016;-92
2023/07/09 03:11:50;;;;;;;7.65;1.77;;;;;;;14.10;100.00;100678.34;6149800;22;20010;-92
2023/07/09 03:14:16;;;;;;;8.95;2.00;;;;;;;14.15;100.00;100680.63;6150416;22;20008;-92
2023/07/09 03:16:41;;;;;;;17.42;2.90;;;;;;;14.19;100.00;100687.25;6149841;23;20013;-92
2023/07/09 03:19:07;;;;;;;15.30;2.85;;;;;;;14.16;100.00;100687.47;6149840;23;20363;-93
2023/07/09 03:21:32;;;;;;;9.75;2.45;;;;;;;14.12;100.00;100698.09;6149825;22;20077;-91
2023/07/09 03:23:58;;;;;;;12.05;3.00;;;;;;;14.07;100.00;100694.97;6253594;22;20027;-93
2023/07/09 03:26:25;;;;;;;15.82;3.03;;;;;;;14.06;100.00;100697.66;6150992;23;20369;-92
2023/07/09 03:28:50;;;;;;;11.57;2.65;;;;;;;14.03;100.00;100698.69;6150851;23;20395;-93
2023/07/09 03:31:16;;;;;;;12.93;3.22;;;;;;;14.07;100.00;100705.34;6150864;22;20002;-94
2023/07/09 03:33:41;;;;;;;11.32;2.25;;;;;;;14.19;100.00;100718.41;6151073;23;20005;-93
2023/07/09 03:36:07;;;;;;;13.90;2.28;;;;;;;14.06;100.00;100701.06;6254286;22;20001;-93
2023/07/09 03:38:32;;;;;;;9.18;2.22;;;;;;;14.10;100.00;100694.75;6151126;23;20037;-93
2023/07/09 03:40:58;;;;;;;11.32;2.70;;;;;;;14.12;100.00;100692.88;6150997;22;20383;-93
2023/07/09 03:43:24;;;;;;;10.65;2.47;;;;;;;14.07;100.00;100689.78;6150986;23;20006;-93
2023/07/09 03:45:50;;;;;;;16.83;2.50;;;;;;;14.02;100.00;100697.06;6150863;22;20538;-93
2023/07/09 03:48:17;;;;;;;9.27;3.03;;;;;;;13.94;100.00;100693.31;6151536;23;20015;-92
2023/07/09 03:50:45;;;;;;;12.05;2.70;;;;;;;13.98;100.00;100698.19;6150800;22;20058;-93
2023/07/09 03:53:11;;;;;;;10.77;2.78;;;;;;;13.97;100.00;100693.09;6253989;22;20047;-92
2023/07/09 03:55:37;;;;;;;7.78;2.30;;;;;;;13.99;100.00;100697.22;6151032;23;20001;-91
2023/07/09 03:58:03;;;;;;;9.45;2.92;;;;;;;14.03;100.00;100698.69;6151251;23;20007;-93
2023/07/09 04:00:29;;;;;;;12.88;4.00;;;;;;;13.90;100.00;100703.06;6150865;22;20100;-92
2023/07/09 04:02:56;;;;;;;10.95;2.95;;;;;;;13.90;100.00;100701.28;6150739;23;20005;-93
2023/07/09 04:05:22;;;;;;;10.70;2.40;;;;;;;13.89;100.00;100712.59;6254391;22;20012;-93
2023/07/09 04:07:47;;;;;;;12.25;3.05;;;;;;;13.92;100.00;100714.16;6150910;23;20005;-93
2023/07/09 04:10:13;;;;;;;13.75;3.70;;;;;;;13.96;100.00;100713.03;6150543;22;20432;-92
2023/07/09 04:12:39;;;;;;;8.00;2.15;;;;;;;14.01;100.00;100710.13;6150830;23;20076;-92
2023/07/09 04:15:05;;;;;;;7.07;2.30;;;;;;;13.98;100.00;100720.72;6253795;22;20008;-92
2023/07/09 04:17:31;;;;;;;8.27;2.10;;;;;;;13.97;100.00;100726.81;6151147;23;20002;-92
2023/07/09 04:19:57;;;;;;;10.25;2.42;;;;;;;13.91;100.00;100731.50;6150717;22;20008;-93
2023/07/09 04:22:22;;;;;;;17.67;2.90;;;;;;;13.91;100.00;100730.66;6253979;22;20076;-93
2023/07/09 04:24:47;;;;;;;12.57;3.17;;;;;;;13.93;100.00;100733.16;6253985;22;20006;-92
2023/07/09 04:27:13;;;;;;;8.55;2.70;;;;;;;13.88;100.00;100736.91;6253873;22;20088;-92
2023/07/09 04:29:40;;;;;;;11.00;3.25;;;;;;;13.86;100.00;100732.75;6253666;22;20037;-92
2023/07/09 04:32:06;;;;;;;20.58;3.30;;;;;;;13.88;100.00;100726.50;6150731;23;20029;-92
2023/07/09 04:34:31;;;;;;;11.02;3.03;;;;;;;13.92;100.00;100727.13;6150756;23;20498;-94
2023/07/09 04:36:57;;;;;;;13.23;3.25;;;;;;;13.94;100.00;100740.84;6150432;23;20006;-93
2023/07/09 04:39:22;;;;;;;11.75;2.95;;;;;;;13.87;100.00;100744.75;6150393;22;20001;-92
2023/07/09 04:41:48;;;;;;;10.93;2.63;;;;;;;13.90;100.00;100745.41;6150911;23;20266;-93
2023/07/09 04:44:14;;;;;;;10.32;2.30;;;;;;;13.96;100.00;100738.97;6150899;23;20001;-93
2023/07/09 04:46:39;;;;;;;10.70;2.33;;;;;;;13.96;100.00;100733.78;6150808;23;20002;-93
2023/07/09 04:49:05;;;;;;;12.88;3.45;;;;;;;13.97;100.00;100730.25;6150623;23;20447;-93
2023/07/09 04:51:30;;;;;;;10.55;2.63;;;;;;;13.95;100.00;100716.56;6150698;22;20006;-93
2023/07/09 04:53:56;;;;;;;15.85;3.30;;;;;;;14.03;100.00;100697.88;6150717;23;20006;-92
2023/07/09 04:56:21;;;;;;;11.65;2.63;;;;;;;14.07;100.00;100704.50;6150737;23;20020;-93
2023/07/09 04:58:46;;;;;;;11.82;3.03;;;;;;;14.06;100.00;100708.88;6150551;23;20012;-93
2023/07/09 05:01:12;;;;;;;13.15;3.45;;;;;;;14.03;100.00;100714.28;6150465;22;20044;-92
2023/07/09 05:03:38;;;;;;;9.65;2.85;;;;;;;14.08;100.00;100712.19;6253345;22;20005;-93
2023/07/09 05:06:04;;;;;;;15.82;2.25;;;;;;;14.18;100.00;100708.97;6253949;22;20367;-93
2023/07/09 05:08:30;;;;;;;10.38;2.95;;;;;;;14.21;100.00;100708.75;6150669;23;20032;-92
2023/07/09 05:10:57;;;;;;;12.82;3.10;;;;;;;14.31;100.00;100717.56;6150538;22;20051;-93
2023/07/09 05:13:23;;;;;;;14.10;2.42;;;;;;;14.32;100.00;100724.44;6150543;23;20055;-92
2023/07/09 05:15:49;;;;;;;17.83;3.33;;;;;;;14.31;100.00;100730.56;6150549;23;20009;-93
2023/07/09 05:18:15;;;;;;;22.80;2.90;;;;;;;14.34;100.00;100712.19;6150613;23;20068;-92
2023/07/09 05:20:41;;;;;;;13.18;2.47;;;;;;;14.22;100.00;100718.22;6150403;22;20477;-93
2023/07/09 05:23:10;;;;;;;9.38;3.13;;;;;;;14.25;100.00;100723.19;6150624;22;20009;-94
2023/07/09 05:25:37;;;;;;;8.07;2.15;;;;;;;14.23;100.00;100730.25;6253395;22;20008;-92
2023/07/09 05:28:03;;;;;;;12.60;2.45;;;;;;;14.23;100.00;100725.88;6150246;23;19998;-93
2023/07/09 05:30:28;;;;;;;9.50;2.60;;;;;;;14.27;100.00;100727.34;6150317;22;20463;-93
2023/07/09 05:32:57;;;;;;;7.38;1.95;;;;;;;14.22;100.00;100723.41;6150860;23;20001;-93
2023/07/09 05:35:25;;;;;;;7.22;2.50;;;;;;;14.24;100.00;100745.75;6150366;23;20029;-93
2023/07/09 05:37:50;;;;;;;10.48;2.22;;;;;;;14.24;100.00;100744.88;6150447;23;20009;-94
2023/07/09 05:40:16;;;;;;;13.60;2.45;;;;;;;14.22;100.00;100742.41;6150358;22;20029;-93
2023/07/09 05:42:41;;;;;;;9.63;1.90;;;;;;;14.25;100.00;100741.38;6150627;22;20438;-94
2023/07/09 05:45:07;;;;;;;14.98;3.15;;;;;;;14.25;100.00;100749.16;6150495;23;20062;-93
2023/07/09 05:47:32;;;;;;;10.98;2.20;;;;;;;14.18;100.00;100737.53;6150279;23;20456;-91
2023/07/09 05:49:58;;;;;;;9.43;2.63;;;;;;;14.19;100.00;100750.41;6150172;22;20013;-92
2023/07/09 05:52:24;;;;;;;9.10;2.80;;;;;;;14.19;100.00;100765.13;6150196;23;20381;-91
2023/07/09 05:54:51;;;;;;;12.60;2.20;;;;;;;14.24;100.00;100776.03;6150559;23;20001;-94
2023/07/09 05:57:16;;;;;;;11.07;2.75;;;;;;;14.19;100.00;100780.72;6150320;22;20006;-94
2023/07/09 05:59:42;;;;;;;10.48;2.30;;;;;;;14.17;100.00;100796.41;6253283;22;20485;-93
2023/07/09 06:02:15;;;;;;;9.52;2.25;;;;;;;14.26;100.00;100785.38;6150368;23;20009;-93
2023/07/09 06:04:42;;;;;;;15.32;2.70;;;;;;;14.30;100.00;100768.69;6150450;23;20336;-94
2023/07/09 06:07:08;;;;;;;17.52;2.92;;;;;;;14.39;100.00;100767.25;6150477;23;20002;-92
2023/07/09 06:09:34;;;;;;;11.07;2.70;;;;;;;14.41;100.00;100765.38;6150139;22;20005;-93
2023/07/09 06:12:00;;;;;;;12.68;3.42;;;;;;;14.44;100.00;100770.34;6253206;22;20076;-93
2023/07/09 06:14:26;;;;;;;14.07;2.38;;;;;;;14.49;100.00;100768.25;6253334;22;20002;-93
2023/07/09 06:16:51;;;;;;;12.43;2.83;;;;;;;14.51;100.00;100756.00;6253375;22;20436;-92
2023/07/09 06:19:17;;;;;;;18.98;3.03;;;;;;;14.59;100.00;100757.28;6150302;23;20012;-93
2023/07/09 06:21:42;;;;;;;13.07;2.97;;;;;;;14.64;100.00;100752.59;6150307;22;20008;-92
2023/07/09 06:24:08;;;;;;;13.20;3.72;;;;;;;14.74;100.00;100751.84;6150631;23;20002;-93
2023/07/09 06:26:34;;;;;;;18.65;2.67;;;;;;;14.82;100.00;100738.28;6150348;22;20119;-91
2023/07/09 06:29:00;;;;;;;12.88;2.78;;;;;;;14.90;100.00;100728.22;6150257;23;20009;-93
2023/07/09 06:31:25;;;;;;;14.20;3.08;;;;;;;15.06;100.00;100714.94;6252513;22;20553;-92
2023/07/09 06:33:51;;;;;;;11.88;3.00;;;;;;;15.11;100.00;100751.81;6150058;23;20029;-93
2023/07/09 06:36:18;;;;;;;14.82;2.55;;;;;;;15.11;100.00;100774.41;6253113;22;20452;-93
2023/07/09 06:38:44;;;;;;;13.13;2.70;;;;;;;15.07;100.00;100776.41;6150301;23;20432;-92
2023/07/09 06:41:11;;;;;;;10.15;2.30;;;;;;;15.04;100.00;100767.97;6150302;22;20076;-95
2023/07/09 06:43:39;;;;;;;9.98;2.10;;;;;;;15.04;100.00;100762.78;6150187;23;20408;-92
2023/07/09 06:46:06;;;;;;;12.02;2.53;;;;;;;15.06;100.00;100755.69;6149936;23;20002;-93
2023/07/09 06:48:32;;;;;;;11.75;2.65;;;;;;;15.12;100.00;100750.09;6252578;22;20100;-92
2023/07/09 06:50:59;;;;;;;16.15;2.70;;;;;;;15.19;100.00;100761.69;6150152;22;20031;-92
2023/07/09 06:53:25;;;;;;;10.30;2.85;;;;;;;15.20;100.00;100776.34;6252928;22;20036;-93
2023/07/09 06:55:52;;;;;;;16.77;2.28;;;;;;;15.14;100.00;100782.81;6149985;23;20036;-93
2023/07/09 06:58:18;;;;;;;11.30;2.55;;;;;;;15.15;100.00;100794.06;6252252;22;20447;-94
2023/07/09 07:00:45;;;;;;;10.90;2.85;;;;;;;15.07;100.00;100794.59;6149763;22;20002;-93
2023/07/09 07:03:10;;;;;;;12.93;3.10;;;;;;;15.06;100.00;100798.13;6150214;23;20008;-94
2023/07/09 07:05:36;;;;;;;13.90;2.78;;;;;;;15.07;100.00;100788.53;6252925;22;20006;-92
2023/07/09 07:08:03;;;;;;;17.25;2.75;;;;;;;15.01;100.00;100804.59;6150033;23;20497;-94
2023/07/09 07:10:28;;;;;;;16.75;2.67;;;;;;;15.01;100.00;100809.78;6149823;22;20056;-93
2023/07/09 07:12:54;;;;;;;11.88;2.53;;;;;;;15.02;100.00;100806.25;6252355;22;20432;-93
2023/07/09 07:15:20;;;;;;;5.93;2.03;;;;;;;15.08;100.00;100809.25;6252863;22;20006;-93
2023/07/09 07:17:45;;;;;;;18.88;3.30;;;;;;;15.17;100.00;100813.81;6149983;23;19998;-93
2023/07/09 07:20:12;;;;;;;14.05;2.80;;;;;;;15.24;100.00;100806.41;6149906;22;20016;-93
2023/07/09 07:22:38;;;;;;;18.88;3.45;;;;;;;15.35;100.00;100803.84;6149801;23;20002;-93
2023/07/09 07:25:05;;;;;;;15.13;2.83;;;;;;;15.49;100.00;100804.66;6150024;22;19998;-91
2023/07/09 07:27:30;;;;;;;22.60;4.68;;;;;;;15.76;100.00;100801.84;6149965;23;20009;-93
2023/07/09 07:29:56;;;;;;;17.77;2.90;;;;;;;16.41;100.00;100793.47;6149593;22;20032;-93
2023/07/09 07:32:21;;;;;;;13.50;2.80;;;;;;;17.55;96.71;100790.59;6149798;23;20001;-94
2023/07/09 07:34:48;;;;;;;11.60;2.38;;;;;;;18.58;89.14;100770.75;6149746;23;20035;-92
2023/07/09 07:37:13;;;;;;;16.20;3.20;;;;;;;20.51;77.68;100782.25;6149591;23;20431;-93
2023/07/09 07:39:39;;;;;;;17.52;2.97;;;;;;;22.32;67.03;100778.72;6151204;22;20008;-94
2023/07/09 07:42:04;;;;;;;12.77;2.65;;;;;;;22.61;65.38;100786.28;6252372;22;20002;-93
2023/07/09 07:44:30;;;;;;;13.85;2.85;;;;;;;21.55;68.00;100781.09;6252458;22;20041;-93
2023/07/09 07:46:55;;;;;;;15.30;3.40;;;;;;;22.33;67.22;100785.63;6252162;22;19998;-93
2023/07/09 07:49:20;;;;;;;17.10;2.53;;;;;;;23.31;60.26;100785.97;6149469;23;20041;-93
2023/07/09 07:51:46;;;;;;;14.95;3.30;;;;;;;23.67;58.38;100788.31;6149862;22;20437;-93
2023/07/09 07:54:11;;;;;;;11.57;2.45;;;;;;;24.66;55.73;100775.78;6150204;23;20005;-94
2023/07/09 07:56:37;;;;;;;9.32;2.22;;;;;;;24.59;54.95;100780.13;6149963;23;20032;-94
2023/07/09 07:59:03;;;;;;;9.90;2.63;;;;;;;24.46;54.89;100788.53;6252354;22;20464;-94
2023/07/09 08:01:28;;;;;;;12.98;2.45;;;;;;;24.84;53.40;100786.91;6149438;22;20436;-94
2023/07/09 08:03:54;;;;;;;10.10;2.47;;;;;;;25.00;50.89;100788.66;6149547;23;20013;-94
2023/07/09 08:06:19;;;;;;;13.65;2.60;;;;;;;24.43;54.97;100780.94;6252090;22;19997;-94
2023/07/09 08:08:45;;;;;;;7.82;1.85;;;;;;;24.53;51.35;100776.31;6149542;23;20001;-95
2023/07/09 08:11:10;;;;;;;8.85;1.75;;;;;;;23.35;51.92;100771.50;6253800;22;20141;-93
2023/07/09 08:13:37;;;;;;;10.98;2.10;;;;;;;23.66;54.06;100773.50;6150802;23;20027;-95
2023/07/09 08:16:04;;;;;;;14.85;2.00;;;;;;;24.46;50.01;100776.19;6150879;23;20012;-94
2023/07/09 08:18:30;;;;;;;8.68;1.73;;;;;;;24.90;50.17;100774.84;6151013;22;20063;-95
2023/07/09 08:20:55;;;;;;;17.48;2.15;;;;;;;23.08;51.01;100772.63;6151085;22;20306;-94
2023/07/09 08:23:21;;;;;;;12.30;2.00;;;;;;;23.16;52.46;100774.44;6254314;22;20016;-94
2023/07/09 08:26:01;;;;;;;10.70;2.00;;;;;;;23.23;54.52;100783.34;6151024;23;20020;-94
2023/07/09 08:28:27;;;;;;;9.10;2.20;;;;;;;22.60;55.59;100780.16;6254039;22;20020;-94
2023/07/09 08:30:53;;;;;;;8.85;1.75;;;;;;;22.74;56.16;100773.47;6150627;22;20005;-95
2023/07/09 08:33:19;;;;;;;7.93;1.73;;;;;;;23.63;53.45;100779.06;6150948;23;20017;-94
2023/07/09 08:35:44;;;;;;;8.40;1.75;;;;;;;23.03;55.60;100767.84;6253843;22;19998;-93
2023/07/09 08:38:10;;;;;;;8.48;1.77;;;;;;;22.37;55.96;100765.94;6150751;23;20047;-93
2023/07/09 08:40:49;;;;;;;10.93;2.10;;;;;;;22.58;57.47;100774.25;6150607;22;20088;-93
2023/07/09 08:43:31;;;;;;;13.52;2.08;;;;;;;23.29;53.63;100766.91;6151402;23;20431;-92
2023/07/09 08:46:19;;;;;;;8.05;1.95;;;;;;;23.85;53.31;100770.56;6150844;23;20297;-94
2023/07/09 08:48:49;;;;;;;9.10;2.05;;;;;;;23.81;52.45;100771.88;6253525;22;20006;-94
2023/07/09 08:51:42;;;;;;;10.63;1.75;;;;;;;22.51;53.86;100767.13;6151009;22;20009;-95
2023/07/09 08:54:17;;;;;;;14.68;2.47;;;;;;;23.34;54.07;100769.88;6152604;22;20059;-93
2023/07/09 08:56:43;;;;;;;10.75;2.08;;;;;;;23.55;52.84;100776.44;6150673;23;20427;-94
2023/07/09 08:59:16;;;;;;;7.88;1.70;;;;;;;23.37;53.21;100776.63;6150625;23;20340;-93
2023/07/09 09:01:57;;;;;;;9.82;2.17;;;;;;;23.52;52.85;100774.16;6253447;22;20497;-93
2023/07/09 09:04:34;;;;;;;17.27;4.30;;;;;;;22.68;53.84;100775.91;6253481;22;20327;-94
2023/07/09 09:07:28;;;;;;;5.88;1.45;;;;;;;24.76;52.91;100787.78;6254059;22;20440;-94
2023/07/09 09:10:01;;;;;;;8.63;1.70;;;;;;;24.62;49.67;100792.97;6150878;22;20068;-95
2023/07/09 09:12:48;;;;;;;7.22;2.13;;;;;;;25.36;50.58;100782.81;6254047;22;20375;-95
2023/07/09 09:15:17;;;;;;;9.43;1.90;;;;;;;24.78;47.95;100779.69;6150470;23;20032;-96
2023/07/09 09:17:43;;;;;;;8.52;1.45;;;;;;;25.57;47.58;100782.16;6253734;22;20447;-94
2023/07/09 09:20:15;;;;;;;9.10;1.50;;;;;;;26.20;46.73;100772.19;6253710;22;20001;-95
2023/07/09 09:23:00;;;;;;;9.82;2.38;;;;;;;24.66;46.51;100784.53;6253462;22;20041;-96
2023/07/09 09:25:31;;;;;;;8.73;2.10;;;;;;;23.68;49.42;100779.44;6150491;23;20002;-94
2023/07/09 09:27:59;;;;;;;9.38;2.03;;;;;;;23.17;51.04;100784.00;6150748;23;20425;-94
2023/07/09 09:30:25;;;;;;;14.60;1.50;;;;;;;22.90;51.02;100783.25;6253499;22;20078;-93
2023/07/09 09:32:56;;;;;;;11.68;3.15;;;;;;;23.14;51.54;100781.69;6253579;22;20694;-96
2023/07/09 09:35:37;;;;;;;10.98;2.55;;;;;;;22.65;52.15;100774.44;6150933;23;20425;-94
2023/07/09 09:38:09;;;;;;;11.85;2.42;;;;;;;22.09;53.69;100773.13;6150416;23;20006;-94
2023/07/09 09:40:35;;;;;;;10.70;2.35;;;;;;;22.35;53.44;100778.41;6151015;22;20077;-94
2023/07/09 09:43:01;;;;;;;7.32;1.70;;;;;;;21.43;55.65;100782.31;6150815;23;20024;-95
2023/07/09 09:45:39;;;;;;;8.07;1.38;;;;;;;21.57;56.64;100789.66;6150866;23;20013;-95
2023/07/09 09:48:16;;;;;;;8.80;1.55;;;;;;;21.45;56.59;100778.56;6150607;23;20001;-96
2023/07/09 09:50:42;;;;;;;10.93;1.73;;;;;;;21.59;55.66;100787.72;6150447;22;20020;-94
2023/07/09 09:53:08;;;;;;;14.60;2.08;;;;;;;21.51;57.06;100787.66;6253356;22;20006;-95
2023/07/09 09:55:34;;;;;;;11.57;2.05;;;;;;;22.18;56.11;100783.53;6253377;22;20100;-94
2023/07/09 09:58:02;;;;;;;6.05;1.42;;;;;;;22.44;54.52;100788.00;6150482;23;20029;-94
2023/07/09 10:00:33;;;;;;;11.00;1.73;;;;;;;22.25;56.18;100789.03;6150226;22;20062;-93
2023/07/09 10:03:03;;;;;;;7.20;1.65;;;;;;;22.71;55.38;100794.03;6253185;22;20429;-94
2023/07/09 10:05:44;;;;;;;8.70;2.60;;;;;;;22.18;56.76;100782.72;6150291;23;20455;-94
2023/07/09 10:08:20;;;;;;;9.55;1.63;;;;;;;21.81;57.31;100791.69;6253355;22;20014;-94
2023/07/09 10:10:46;;;;;;;13.93;2.88;;;;;;;21.48;58.65;100790.56;6150322;22;20006;-94
2023/07/09 10:13:24;;;;;;;12.20;1.90;;;;;;;21.27;59.05;100788.22;6150316;23;20051;-94
2023/07/09 10:16:05;;;;;;;9.75;2.38;;;;;;;21.16;60.02;100790.06;6150380;23;20001;-94
2023/07/09 10:18:59;;;;;;;9.00;1.75;;;;;;;20.80;61.98;100791.81;6253268;22;20084;-94
2023/07/09 10:21:54;;;;;;;29.58;2.53;;;;;;;20.61;63.55;100776.19;6150533;22;20076;-94
2023/07/09 10:24:27;;;;;;;8.40;1.73;;;;;;;20.40;62.14;100794.72;6220040;22;20040;-93
2023/07/09 10:27:14;;;;;;;9.63;2.03;;;;;;;20.52;63.26;100793.56;6150357;23;20006;-93
2023/07/09 10:30:18;;;;;;;9.52;2.53;;;;;;;20.91;61.87;100788.97;6253031;22;20451;-94
2023/07/09 10:33:08;;;;;;;10.98;2.33;;;;;;;21.19;60.68;100786.34;6149767;23;20421;-93
2023/07/09 10:35:59;;;;;;;12.70;3.70;;;;;;;22.08;58.21;100785.47;6150191;23;20006;-93
2023/07/09 10:38:33;;;;;;;9.90;1.92;;;;;;;22.38;58.12;100788.63;6150381;23;20051;-93
2023/07/09 10:41:00;;;;;;;7.07;1.73;;;;;;;22.18;57.75;100783.53;6252720;22;20431;-94
2023/07/09 10:43:45;;;;;;;8.68;1.88;;;;;;;21.98;59.25;100797.88;6253357;22;20084;-94
2023/07/09 10:46:19;;;;;;;10.75;1.83;;;;;;;21.32;64.26;100789.41;6150334;23;20005;-93
2023/07/09 10:48:48;;;;;;;12.95;2.00;;;;;;;21.58;63.91;100792.16;6252745;22;19998;-94
2023/07/09 10:51:48;;;;;;;11.65;1.75;;;;;;;21.07;64.48;100795.38;6150246;22;20037;-94
2023/07/09 10:54:34;;;;;;;11.68;2.40;;;;;;;21.59;69.18;100792.97;6163284;22;20006;-94
2023/07/09 10:57:08;;;;;;;14.27;2.08;;;;;;;21.43;70.04;100784.94;6252877;22;20506;-94
2023/07/09 10:59:37;;;;;;;11.27;2.10;;;;;;;21.54;69.94;100784.72;6252828;22;20059;-95
2023/07/09 11:02:08;;;;;;;9.10;1.63;;;;;;;21.30;70.46;100788.75;6150312;23;20025;-93
2023/07/09 11:04:46;;;;;;;9.63;1.70;;;;;;;21.03;72.41;100789.63;6149972;23;20010;-94
2023/07/09 11:07:17;;;;;;;8.98;1.75;;;;;;;21.19;73.34;100791.59;6150159;23;20005;-94
2023/07/09 11:09:45;;;;;;;17.48;3.33;;;;;;;21.97;69.24;100790.97;6150250;22;20009;-93
2023/07/09 11:12:22;;;;;;;9.98;2.67;;;;;;;22.42;67.31;100784.69;6150372;23;20067;-93
2023/07/09 11:15:00;;;;;;;12.38;2.95;;;;;;;22.48;67.44;100784.06;6253035;22;20009;-94
2023/07/09 11:17:28;;;;;;;11.93;2.92;;;;;;;23.07;63.11;100779.69;6150402;23;20328;-94
2023/07/09 11:19:55;;;;;;;10.63;2.08;;;;;;;22.55;63.06;100774.56;6150055;22;20008;-94
2023/07/09 11:22:23;;;;;;;10.07;1.88;;;;;;;22.46;64.71;100770.25;6150103;23;20040;-94